Embarrass, Wisconsin
Current Conditions -  °F | °C
As of 6:55 PM on Saturday 25 Oct 2014 (Local Time) from KCLI Reporting Station
Clear Clear  
Wind Chill: 54°   Ceiling: Unl
Heat Index: 54°   Visibility: 10mi
Dew Point: 27°   Wind: 7mph
Humidity: 35%   Direction: 270°W
Pressure: 29.88"   Gusts: NA
Location:  44.67°N, 88.71°W
Report Text: KCLI 252355Z AUTO 27006KT 10SM CLR 12/M03 A2988 RMK AO2
Loading
Personal Weather Stations






























Interactive Weather Map
Tropical Storm Tracking
New forecast layout! Learn more

10-Day Weather Forecast

Advertisements
Track Severe Weather on mobile